Calvin, Oklahoma
Current Conditions -  °F | °C
As of 1:35 PM on Monday 22 Dec 2014 (Local Time) from KADH Reporting Station
Scattered Clouds Scattered Clouds  
Wind Chill: 55°   Ceiling: Unl
Heat Index: 55°   Visibility: 10mi
Dew Point: 48°   Wind: 10mph
Humidity: 77%   Direction: 300°WNW
Pressure: 29.56"   Gusts: NA
Location:  34.97°N, 96.25°W
Report Text: KADH 221935Z AUTO 30009KT 260V320 10SM SCT020 SCT090 SCT120 13/09 A2956 RMK AO2
Loading
Personal Weather Stations






























Interactive Weather Map New forecast layout! Learn more

10-Day Weather Forecast

Advertisements
Track Severe Weather on mobile